[ EDKA 121950Z AUTO 21008KT 9999 ///////// 15/12 Q1029 ]
Windrichtung (graph.)
Inst: 210° 9.1 kt
2min: 210° 8.5 kt
10min: 212° 8.6 kt
Extrem: 205° – 220° 10.3 kt – 7.2 kt
Crosswind: 5.4 kt
Luftdruck (graph.)
QNH: 1029 hPa Temp: 15.3 °C
QNH: 30.39 inHg DewP: 11.8 °C
QFE: 1006 hPa Hum: 80.0 %
QFE: 29.73 inHg